Time;durP1;ratioP1;P1;durP2;ratioP2;P2;SDS_P1;SDS_P2;PMS_P1;PMS_P2;Temp;Humidity;BMP_temperature;BMP_pressure;BME280_temperature;BME280_humidity;BME280_pressure;Samples;Min_cycle;Max_cycle;Signal;HPM_P1;HPM_P2
2022/10/10 00:01:14;;;;;;;8.10;2.38;;;;;;;13.84;54.53;101415.88;5086226;28;20048;-64
2022/10/10 00:03:42;;;;;;;5.85;2.63;;;;;;;13.81;54.01;101414.44;5087215;28;20044;-64
2022/10/10 00:06:11;;;;;;;4.45;2.78;;;;;;;13.81;54.39;101413.63;5076178;28;20049;-64
2022/10/10 00:08:40;;;;;;;4.65;2.47;;;;;;;13.80;54.55;101406.56;5087038;28;20063;-64
2022/10/10 00:11:08;;;;;;;4.00;2.80;;;;;;;13.71;54.30;101397.13;5082516;28;20059;-64
2022/10/10 00:13:37;;;;;;;4.20;2.80;;;;;;;13.78;54.56;101409.50;5076103;28;20048;-64
2022/10/10 00:16:05;;;;;;;4.50;2.50;;;;;;;13.78;54.57;101409.50;5084907;28;20116;-64
2022/10/10 00:18:34;;;;;;;6.93;2.45;;;;;;;13.75;54.62;101409.13;5077668;28;20104;-64
2022/10/10 00:21:02;;;;;;;5.63;2.70;;;;;;;13.75;54.33;101406.44;5083305;28;20554;-64
2022/10/10 00:23:30;;;;;;;5.30;2.83;;;;;;;13.74;54.58;101405.63;5083626;28;20049;-64
2022/10/10 00:25:58;;;;;;;6.60;2.60;;;;;;;13.74;54.60;101400.22;5084172;28;20049;-64
2022/10/10 00:28:26;;;;;;;3.17;2.40;;;;;;;13.66;54.42;101387.03;5086377;28;20051;-64
2022/10/10 00:30:54;;;;;;;4.32;2.30;;;;;;;13.71;54.60;101400.66;5088457;28;20052;-64
2022/10/10 00:33:22;;;;;;;5.20;2.88;;;;;;;13.70;54.23;101399.00;5088613;28;20044;-64
2022/10/10 00:35:51;;;;;;;5.45;2.50;;;;;;;13.70;54.21;101398.19;5089845;28;20047;-64
2022/10/10 00:38:19;;;;;;;4.70;2.65;;;;;;;13.69;54.54;101397.38;5087281;28;20055;-64
2022/10/10 00:40:48;;;;;;;7.30;2.60;;;;;;;13.67;54.35;101391.38;5087408;28;20049;-64
2022/10/10 00:43:18;;;;;;;6.68;2.70;;;;;;;13.65;54.40;101397.00;5082885;28;20058;-64
2022/10/10 00:45:47;;;;;;;4.35;2.58;;;;;;;13.66;54.45;101395.13;5078499;28;20062;-64
2022/10/10 00:48:17;;;;;;;7.40;2.67;;;;;;;13.64;54.58;101389.94;5081737;28;20048;-64
2022/10/10 00:50:50;;;;;;;5.70;2.63;;;;;;;13.64;54.30;101389.94;5077638;28;20622;-64
2022/10/10 00:53:23;;;;;;;4.68;2.53;;;;;;;13.63;54.24;101395.59;5075138;28;20048;-64
2022/10/10 00:55:52;;;;;;;4.20;2.58;;;;;;;13.62;54.74;101385.84;5082589;28;20131;-64
2022/10/10 00:58:21;;;;;;;5.40;2.65;;;;;;;13.60;54.63;101377.13;5082188;28;20041;-64
2022/10/10 01:00:49;;;;;;;6.22;2.67;;;;;;;13.59;54.25;101387.13;5087791;28;20048;-64
2022/10/10 01:03:17;;;;;;;5.70;3.53;;;;;;;13.58;54.54;101382.75;5081872;28;20102;-64
2022/10/10 01:05:45;;;;;;;5.57;2.42;;;;;;;13.57;54.77;101386.53;5072616;28;20056;-64
2022/10/10 01:08:14;;;;;;;6.53;3.08;;;;;;;13.55;54.54;101385.91;5083894;28;20056;-64
2022/10/10 01:10:54;;;;;;;5.00;2.38;;;;;;;13.53;54.37;101368.28;5080313;28;20040;-64
2022/10/10 01:13:32;;;;;;;3.92;2.70;;;;;;;13.53;54.55;101376.41;5082016;28;20045;-64
2022/10/10 01:16:06;;;;;;;9.80;3.58;;;;;;;13.50;54.56;101364.19;5082195;28;20059;-64
2022/10/10 01:18:43;;;;;;;4.65;2.58;;;;;;;13.42;54.56;101358.28;5083237;28;20555;-64
2022/10/10 01:21:20;;;;;;;4.55;2.90;;;;;;;13.47;54.69;101361.94;5082610;28;20040;-64
2022/10/10 01:24:08;;;;;;;6.35;3.30;;;;;;;13.38;54.50;101349.81;5083707;28;20051;-63
2022/10/10 01:27:11;;;;;;;4.97;2.70;;;;;;;13.45;54.35;101371.31;5082003;28;20044;-64
2022/10/10 01:29:45;;;;;;;4.45;2.80;;;;;;;13.46;54.42;101372.97;5082885;28;20510;-63
2022/10/10 01:32:17;;;;;;;7.10;2.83;;;;;;;13.44;54.70;101364.25;5082989;28;20049;-63
2022/10/10 01:34:55;;;;;;;3.22;2.40;;;;;;;13.43;54.33;101359.91;5082593;28;20055;-63
2022/10/10 01:37:34;;;;;;;5.97;2.75;;;;;;;13.42;54.55;101366.38;5077709;28;20041;-64
2022/10/10 01:40:09;;;;;;;4.40;2.67;;;;;;;13.40;54.35;101355.81;5082476;28;20055;-65
2022/10/10 01:42:42;;;;;;;8.45;3.50;;;;;;;13.39;54.55;101358.72;5084391;28;20048;-65
2022/10/10 01:45:11;;;;;;;4.88;2.80;;;;;;;13.38;54.42;101352.50;5080546;28;20044;-64
2022/10/10 01:47:39;;;;;;;5.30;3.00;;;;;;;13.38;54.58;101351.69;5081580;28;20048;-64
2022/10/10 01:50:11;;;;;;;8.82;3.00;;;;;;;13.36;54.41;101346.50;5083913;28;20056;-64
2022/10/10 01:52:51;;;;;;;6.88;3.30;;;;;;;13.26;54.40;101338.13;5079391;28;20052;-65
2022/10/10 01:55:34;;;;;;;7.00;2.70;;;;;;;13.27;54.65;101339.78;5071703;28;20052;-62
2022/10/10 01:58:18;;;;;;;5.78;3.20;;;;;;;13.34;54.55;101343.22;5086035;28;20416;-63
2022/10/10 02:00:58;;;;;;;6.65;3.17;;;;;;;13.31;54.42;101344.50;5080444;28;20063;-61
2022/10/10 02:03:30;;;;;;;4.07;2.70;;;;;;;13.29;54.60;101346.59;5085978;28;20056;-62
2022/10/10 02:06:00;;;;;;;5.88;3.47;;;;;;;13.29;54.50;101349.28;5084604;28;20055;-61
2022/10/10 02:08:33;;;;;;;4.85;2.78;;;;;;;13.27;54.65;101342.47;5087189;28;20056;-62
2022/10/10 02:11:04;;;;;;;4.57;2.58;;;;;;;13.26;54.58;101341.66;5080919;28;20055;-62
2022/10/10 02:13:38;;;;;;;4.43;2.70;;;;;;;13.25;54.92;101333.78;5084838;28;20058;-62
2022/10/10 02:16:13;;;;;;;7.20;3.58;;;;;;;13.24;54.92;101332.94;5090245;28;20153;-62
2022/10/10 02:18:44;;;;;;;4.95;3.03;;;;;;;13.23;54.54;101333.19;5085838;28;20056;-63
2022/10/10 02:21:14;;;;;;;6.47;3.60;;;;;;;13.21;54.80;101332.59;5088069;28;20052;-62
2022/10/10 02:23:43;;;;;;;4.63;2.47;;;;;;;13.20;54.69;101334.47;5086617;28;20048;-62
2022/10/10 02:26:13;;;;;;;6.43;3.03;;;;;;;13.21;54.58;101329.88;5080561;28;20040;-62
2022/10/10 02:28:48;;;;;;;4.32;2.58;;;;;;;13.22;54.69;101326.97;5085543;28;20044;-62
2022/10/10 02:31:21;;;;;;;5.82;2.70;;;;;;;13.23;54.61;101325.09;5093438;28;20068;-62
2022/10/10 02:33:55;;;;;;;4.70;2.85;;;;;;;13.22;54.52;101321.56;5076955;28;20048;-62
2022/10/10 02:36:24;;;;;;;6.45;3.40;;;;;;;13.22;54.64;101318.03;5088991;28;20059;-62
2022/10/10 02:38:53;;;;;;;6.82;3.30;;;;;;;13.21;54.97;101316.38;5084939;28;20101;-62
2022/10/10 02:41:22;;;;;;;4.75;2.85;;;;;;;13.20;54.51;101318.25;5089773;28;20045;-62
2022/10/10 02:43:52;;;;;;;4.95;3.13;;;;;;;13.20;55.01;101312.03;5082092;28;20045;-62
2022/10/10 02:46:21;;;;;;;4.25;2.50;;;;;;;13.20;55.04;101306.66;5094177;28;20428;-62
2022/10/10 02:48:49;;;;;;;6.00;2.95;;;;;;;13.19;54.65;101305.00;5080957;28;20045;-62
2022/10/10 02:51:17;;;;;;;6.90;3.03;;;;;;;13.18;54.72;101306.06;5084019;28;20044;-62
2022/10/10 02:53:46;;;;;;;6.63;2.85;;;;;;;13.18;54.62;101306.06;5086135;28;20048;-63
2022/10/10 02:56:14;;;;;;;6.88;3.22;;;;;;;13.16;54.71;101306.28;5090247;28;20048;-62
2022/10/10 02:58:41;;;;;;;5.43;2.83;;;;;;;13.16;55.07;101305.41;5086071;28;20055;-62
2022/10/10 03:01:10;;;;;;;4.60;2.70;;;;;;;13.14;54.55;101297.56;5084942;28;20052;-62
2022/10/10 03:03:39;;;;;;;4.78;2.72;;;;;;;13.14;54.73;101296.72;5090099;28;20048;-62
2022/10/10 03:06:07;;;;;;;4.85;2.83;;;;;;;13.04;54.95;101283.78;5086266;28;20049;-62
2022/10/10 03:08:37;;;;;;;7.85;2.80;;;;;;;13.12;54.73;101294.25;5078973;28;20040;-62
2022/10/10 03:11:06;;;;;;;6.10;2.60;;;;;;;13.11;54.81;101289.91;5085668;28;20493;-63
2022/10/10 03:13:34;;;;;;;6.97;2.80;;;;;;;13.11;54.90;101291.78;5077868;28;20049;-62
2022/10/10 03:16:03;;;;;;;7.60;3.53;;;;;;;13.10;54.70;101290.13;5082614;28;20044;-62
2022/10/10 03:18:31;;;;;;;5.95;3.05;;;;;;;13.09;55.15;101289.31;5083450;28;20045;-62
2022/10/10 03:21:00;;;;;;;5.43;2.90;;;;;;;13.09;54.89;101283.91;5083088;28;20040;-63
2022/10/10 03:23:27;;;;;;;3.35;2.58;;;;;;;13.07;54.99;101282.50;5084833;28;20437;-61
2022/10/10 03:25:55;;;;;;;3.78;2.42;;;;;;;13.06;54.70;101280.84;5086168;28;20044;-61
2022/10/10 03:28:23;;;;;;;6.72;3.30;;;;;;;13.03;55.11;101282.94;5079745;28;20136;-61
2022/10/10 03:30:51;;;;;;;5.15;2.92;;;;;;;13.02;54.76;101281.31;5087583;28;20058;-63
2022/10/10 03:33:19;;;;;;;5.65;2.70;;;;;;;13.01;54.86;101285.06;5088232;28;20060;-63
2022/10/10 03:35:46;;;;;;;6.28;2.90;;;;;;;12.99;54.84;101281.75;5087529;28;20060;-61
2022/10/10 03:38:16;;;;;;;6.57;2.83;;;;;;;12.97;55.11;101278.47;5084107;28;20044;-62
2022/10/10 03:40:44;;;;;;;9.32;3.85;;;;;;;12.97;55.08;101283.03;5085795;28;20048;-62
2022/10/10 03:43:14;;;;;;;4.25;2.78;;;;;;;12.96;55.26;101294.88;5082084;28;20072;-62
2022/10/10 03:45:43;;;;;;;4.25;2.20;;;;;;;12.88;55.15;101282.53;5084821;28;20056;-62
2022/10/10 03:48:11;;;;;;;6.93;2.97;;;;;;;12.93;54.98;101279.16;5079573;28;20057;-62
2022/10/10 03:50:39;;;;;;;6.82;3.10;;;;;;;12.93;55.33;101288.06;5086790;28;20044;-62
2022/10/10 03:53:07;;;;;;;4.93;2.45;;;;;;;12.93;55.24;101290.75;5081682;28;20087;-63
2022/10/10 03:55:39;;;;;;;4.15;3.17;;;;;;;12.90;55.42;101285.81;5086465;28;20045;-62
2022/10/10 03:58:06;;;;;;;8.30;2.67;;;;;;;12.91;55.38;101292.03;5081170;28;20056;-63
2022/10/10 04:00:34;;;;;;;6.32;2.90;;;;;;;12.89;54.99;101288.75;5094657;28;20044;-63
2022/10/10 04:03:05;;;;;;;5.20;2.50;;;;;;;12.89;55.28;101281.47;5081370;28;20058;-63
2022/10/10 04:05:34;;;;;;;3.75;2.65;;;;;;;12.89;55.22;101289.56;5078350;28;20063;-63
2022/10/10 04:08:02;;;;;;;4.28;2.83;;;;;;;12.87;55.31;101280.88;5081082;28;20585;-63
2022/10/10 04:10:30;;;;;;;7.90;3.30;;;;;;;12.87;55.38;101288.16;5078676;28;20044;-63
2022/10/10 04:12:59;;;;;;;5.72;2.72;;;;;;;12.84;55.14;101278.63;5087068;28;20508;-62
2022/10/10 04:15:27;;;;;;;6.80;2.60;;;;;;;12.84;55.53;101291.28;5089637;28;20135;-63
2022/10/10 04:17:54;;;;;;;5.97;2.97;;;;;;;12.84;55.26;101280.50;5083046;28;20112;-62
2022/10/10 04:20:22;;;;;;;5.38;3.10;;;;;;;12.82;55.59;101280.72;5081309;28;20052;-63
2022/10/10 04:22:50;;;;;;;7.25;3.45;;;;;;;12.82;55.62;101280.72;5077851;28;20477;-63
2022/10/10 04:25:18;;;;;;;6.00;3.60;;;;;;;12.81;55.16;101287.16;5084607;28;20113;-63
2022/10/10 04:27:46;;;;;;;7.22;3.03;;;;;;;12.80;55.33;101280.13;5083233;28;20139;-63
2022/10/10 04:30:16;;;;;;;9.32;3.03;;;;;;;12.79;55.58;101280.34;5078621;28;20047;-63
2022/10/10 04:32:44;;;;;;;5.03;2.97;;;;;;;12.78;55.29;101276.00;5094610;28;20048;-63
2022/10/10 04:35:11;;;;;;;6.13;3.40;;;;;;;12.76;55.37;101275.41;5087485;28;20048;-63
2022/10/10 04:37:39;;;;;;;5.60;2.95;;;;;;;12.75;55.71;101287.25;5079525;28;20151;-62
2022/10/10 04:40:08;;;;;;;6.47;3.20;;;;;;;12.76;55.66;101288.91;5081801;28;20060;-62
2022/10/10 04:42:36;;;;;;;7.15;3.45;;;;;;;12.75;55.70;101281.84;5083449;28;20056;-61
2022/10/10 04:45:05;;;;;;;5.07;2.80;;;;;;;12.74;55.48;101274.81;5071551;28;20112;-63
2022/10/10 04:47:34;;;;;;;4.05;2.70;;;;;;;12.72;55.59;101280.44;5084325;28;20053;-62
2022/10/10 04:50:03;;;;;;;8.98;3.28;;;;;;;12.70;55.55;101269.88;5083829;28;20039;-62
2022/10/10 04:52:30;;;;;;;5.18;3.00;;;;;;;12.71;55.81;101276.91;5081772;28;20121;-62
2022/10/10 04:54:59;;;;;;;6.72;2.65;;;;;;;12.69;56.13;101281.72;5079328;28;20048;-62
2022/10/10 04:57:26;;;;;;;6.95;2.85;;;;;;;12.70;55.93;101282.53;5095140;28;20052;-62
2022/10/10 04:59:54;;;;;;;4.68;2.20;;;;;;;12.69;55.85;101283.56;5079885;28;20044;-63
2022/10/10 05:02:22;;;;;;;5.28;2.67;;;;;;;12.67;56.11;101275.72;5082841;28;20054;-62
2022/10/10 05:04:51;;;;;;;5.57;3.08;;;;;;;12.69;56.10;101280.88;5077327;28;20059;-62
2022/10/10 05:07:19;;;;;;;5.55;2.72;;;;;;;12.68;56.04;101282.75;5082234;28;20145;-63
2022/10/10 05:09:46;;;;;;;8.98;3.30;;;;;;;12.69;55.67;101278.19;5071570;28;20055;-63
2022/10/10 05:12:14;;;;;;;4.72;2.65;;;;;;;12.69;55.58;101280.88;5082966;28;20127;-64
2022/10/10 05:14:42;;;;;;;4.10;2.63;;;;;;;12.67;55.57;101269.50;5085705;28;20051;-63
2022/10/10 05:17:15;;;;;;;8.00;2.97;;;;;;;12.59;56.08;101262.53;5085790;28;20048;-63
2022/10/10 05:19:43;;;;;;;6.43;2.97;;;;;;;12.66;55.99;101270.53;5079733;28;20052;-63
2022/10/10 05:22:12;;;;;;;5.60;2.80;;;;;;;12.66;55.79;101265.97;5073085;28;20132;-63
2022/10/10 05:24:40;;;;;;;4.00;2.45;;;;;;;12.59;55.94;101262.53;5077772;28;20049;-63
2022/10/10 05:27:07;;;;;;;6.68;3.05;;;;;;;12.66;56.10;101275.94;5077152;28;20496;-63
2022/10/10 05:29:35;;;;;;;3.92;2.40;;;;;;;12.66;56.00;101281.34;5078555;28;20055;-63
2022/10/10 05:32:03;;;;;;;4.30;2.83;;;;;;;12.65;56.07;101274.28;5082295;28;20053;-64
2022/10/10 05:34:36;;;;;;;4.15;2.47;;;;;;;12.63;56.17;101274.50;5082874;28;20056;-62
2022/10/10 05:37:05;;;;;;;4.13;2.67;;;;;;;12.61;56.20;101278.50;5082930;28;20108;-69
2022/10/10 05:39:34;;;;;;;6.03;2.60;;;;;;;12.60;55.91;101274.97;5078706;28;20063;-64
2022/10/10 05:42:01;;;;;;;5.00;2.45;;;;;;;12.59;56.30;101277.88;5097726;28;20422;-63
2022/10/10 05:44:30;;;;;;;4.90;2.80;;;;;;;12.58;56.28;101273.53;5074954;28;20048;-64
2022/10/10 05:46:58;;;;;;;8.18;2.67;;;;;;;12.58;55.88;101271.66;5078828;28;20045;-62
2022/10/10 05:49:25;;;;;;;4.95;2.75;;;;;;;12.58;56.30;101273.53;5082332;28;20055;-60
2022/10/10 05:51:53;;;;;;;9.48;2.63;;;;;;;12.57;56.05;101272.72;5079621;28;20112;-66
2022/10/10 05:54:21;;;;;;;3.85;2.67;;;;;;;12.56;56.38;101275.63;4723866;28;10000209;-64
2022/10/10 05:56:50;;;;;;;8.02;2.97;;;;;;;12.55;55.93;101277.50;5071575;28;20087;-64
2022/10/10 05:59:18;;;;;;;12.95;2.80;;;;;;;12.54;56.32;101277.75;5076273;28;20508;-64
2022/10/10 06:01:46;;;;;;;6.05;2.90;;;;;;;12.46;56.25;101265.38;5084110;28;20058;-64
2022/10/10 06:04:14;;;;;;;4.97;2.42;;;;;;;12.50;56.07;101269.28;5079419;28;20040;-63
2022/10/10 06:06:42;;;;;;;2.88;2.28;;;;;;;12.42;56.20;101261.47;5073906;28;20056;-64
2022/10/10 06:09:10;;;;;;;6.47;3.03;;;;;;;12.50;56.38;101276.53;5076066;28;20045;-62
2022/10/10 06:11:38;;;;;;;6.53;2.75;;;;;;;12.48;56.42;101275.94;4724528;28;10000399;-71
2022/10/10 06:14:07;;;;;;;6.43;2.85;;;;;;;12.43;56.96;101290.09;5078909;28;20144;-65
2022/10/10 06:16:35;;;;;;;4.57;2.80;;;;;;;12.42;57.00;101291.13;5086642;28;20052;-65
2022/10/10 06:19:04;;;;;;;6.32;4.00;;;;;;;12.41;56.82;101296.75;5079109;28;20585;-64
2022/10/10 06:21:31;;;;;;;5.25;2.55;;;;;;;12.42;56.90;101288.44;5075826;28;20049;-65
2022/10/10 06:23:59;;;;;;;6.45;2.60;;;;;;;12.41;56.76;101291.34;5078636;28;20052;-64
2022/10/10 06:26:27;;;;;;;5.50;2.78;;;;;;;12.41;56.55;101289.47;5080371;28;20048;-65
2022/10/10 06:28:55;;;;;;;6.00;3.20;;;;;;;12.42;56.64;101295.69;5076655;28;20053;-65
2022/10/10 06:31:24;;;;;;;4.75;2.80;;;;;;;12.42;56.69;101293.81;5080408;28;20044;-65
2022/10/10 06:33:52;;;;;;;5.40;3.03;;;;;;;12.42;56.62;101296.53;5077798;28;20064;-66
2022/10/10 06:36:19;;;;;;;7.40;2.83;;;;;;;12.39;57.25;101296.97;5072103;28;20082;-64
2022/10/10 06:38:47;;;;;;;7.63;3.20;;;;;;;12.37;57.06;101294.50;5076963;28;20052;-64
2022/10/10 06:41:15;;;;;;;5.25;3.42;;;;;;;12.37;56.99;101296.38;5079923;28;20051;-63
2022/10/10 06:43:43;;;;;;;4.40;2.33;;;;;;;12.37;56.80;101299.88;5076757;28;20048;-64
2022/10/10 06:46:12;;;;;;;6.93;2.75;;;;;;;12.38;56.67;101303.41;5082939;28;20063;-63
2022/10/10 06:48:41;;;;;;;6.15;2.70;;;;;;;12.39;57.07;101305.06;5089091;28;20489;-64
2022/10/10 06:51:12;;;;;;;4.65;2.58;;;;;;;12.37;57.03;101302.56;5081628;28;20048;-64
2022/10/10 06:53:40;;;;;;;5.20;2.58;;;;;;;12.38;56.83;101308.78;5084261;28;20048;-64
2022/10/10 06:56:14;;;;;;;7.68;2.80;;;;;;;12.38;56.71;101306.09;5076596;28;20052;-65
2022/10/10 06:58:42;;;;;;;7.13;3.25;;;;;;;12.37;57.10;101307.16;5079387;28;20063;-65
2022/10/10 07:01:11;;;;;;;5.35;2.63;;;;;;;12.38;57.05;101308.78;5080695;28;20040;-65
2022/10/10 07:03:40;;;;;;;6.68;3.00;;;;;;;12.38;57.12;101319.56;5084041;28;20129;-65
2022/10/10 07:06:10;;;;;;;7.88;2.70;;;;;;;12.34;56.78;101313.81;5078995;28;20161;-65
2022/10/10 07:08:39;;;;;;;6.63;2.75;;;;;;;12.36;56.96;101313.59;5082525;28;20048;-65
2022/10/10 07:11:07;;;;;;;8.75;2.88;;;;;;;12.39;57.07;101315.84;5081502;28;20052;-65
2022/10/10 07:13:36;;;;;;;5.20;2.58;;;;;;;12.27;56.88;101299.56;5068269;28;20052;-65
2022/10/10 07:16:05;;;;;;;5.70;3.03;;;;;;;12.37;57.16;101313.38;5070483;28;20052;-65
2022/10/10 07:18:35;;;;;;;5.68;2.53;;;;;;;12.38;57.19;101322.28;5080886;28;20041;-65
2022/10/10 07:21:05;;;;;;;6.53;2.67;;;;;;;12.38;57.23;101320.41;5077327;28;20120;-65
2022/10/10 07:23:35;;;;;;;7.70;2.90;;;;;;;12.39;57.35;101323.91;5080034;28;20433;-65
2022/10/10 07:26:05;;;;;;;7.60;2.83;;;;;;;12.42;57.15;101322.66;5076964;28;20053;-65
2022/10/10 07:28:33;;;;;;;10.23;3.17;;;;;;;12.32;57.47;101309.69;5078766;28;20067;-65
2022/10/10 07:31:04;;;;;;;4.53;3.03;;;;;;;12.33;57.62;101327.50;5074325;28;20044;-65
2022/10/10 07:33:33;;;;;;;7.47;2.78;;;;;;;12.39;57.47;101330.13;5081685;28;20135;-64
2022/10/10 07:36:01;;;;;;;4.75;2.08;;;;;;;12.27;57.47;101310.34;5079168;28;20060;-64
2022/10/10 07:38:30;;;;;;;7.07;2.58;;;;;;;12.42;57.26;101336.97;5081127;28;20045;-65
2022/10/10 07:40:58;;;;;;;5.78;2.60;;;;;;;12.43;57.45;101335.91;5078842;28;20409;-66
2022/10/10 07:43:26;;;;;;;9.63;2.67;;;;;;;12.43;57.64;101338.59;5078206;28;20112;-64
2022/10/10 07:45:54;;;;;;;4.88;2.42;;;;;;;12.43;57.31;101338.59;5084480;28;20049;-64
2022/10/10 07:48:22;;;;;;;5.50;3.13;;;;;;;12.48;57.42;101338.75;5076633;28;20048;-63
2022/10/10 07:50:50;;;;;;;8.18;2.47;;;;;;;12.62;57.25;101339.47;5079456;28;20141;-60
2022/10/10 07:53:18;;;;;;;3.55;2.13;;;;;;;12.80;56.72;101344.03;5083861;28;20509;-70
2022/10/10 07:55:47;;;;;;;5.10;2.28;;;;;;;12.92;56.23;101337.66;5083928;28;20044;-64
2022/10/10 07:58:15;;;;;;;8.07;2.53;;;;;;;13.11;55.75;101348.47;5073874;28;20125;-64
2022/10/10 08:00:42;;;;;;;3.83;2.55;;;;;;;13.25;55.25;101349.97;5083307;28;20084;-64
2022/10/10 08:03:11;;;;;;;6.05;3.40;;;;;;;13.39;54.67;101342.53;5076307;28;20053;-64
2022/10/10 08:05:40;;;;;;;4.65;2.50;;;;;;;13.58;54.64;101347.66;5071859;28;20139;-65
2022/10/10 08:08:08;;;;;;;4.63;2.17;;;;;;;13.59;54.62;101348.47;5077811;28;20044;-65
2022/10/10 08:10:35;;;;;;;5.25;2.75;;;;;;;13.53;55.62;101358.31;5070112;28;20059;-65
2022/10/10 08:13:05;;;;;;;6.35;2.55;;;;;;;13.45;55.28;101347.00;5080133;28;20171;-64
2022/10/10 08:15:33;;;;;;;4.72;2.50;;;;;;;13.33;55.64;101344.25;5081746;28;20511;-64
2022/10/10 08:18:00;;;;;;;5.45;2.33;;;;;;;13.24;56.51;101349.16;5080435;28;20053;-62
2022/10/10 08:20:29;;;;;;;5.82;3.00;;;;;;;13.17;56.90;101358.38;5075356;28;20050;-64
2022/10/10 08:22:56;;;;;;;9.35;3.03;;;;;;;13.12;57.24;101352.81;5086700;28;20056;-64
2022/10/10 08:25:25;;;;;;;9.23;2.78;;;;;;;13.11;57.61;101357.38;5080190;28;20045;-65
2022/10/10 08:27:53;;;;;;;10.43;2.42;;;;;;;13.10;57.12;101360.31;5086082;28;20084;-65
2022/10/10 08:30:22;;;;;;;5.25;2.35;;;;;;;13.07;57.39;101356.19;5087445;28;20317;-64
2022/10/10 08:32:49;;;;;;;5.75;2.40;;;;;;;13.06;57.42;101354.53;5078982;28;20072;-64
2022/10/10 08:35:18;;;;;;;5.50;2.65;;;;;;;13.07;57.41;101352.66;5080804;28;20056;-64
2022/10/10 08:37:45;;;;;;;7.68;2.40;;;;;;;13.02;57.70;101347.94;5076068;28;20052;-63
2022/10/10 08:40:16;;;;;;;5.22;2.50;;;;;;;13.02;57.74;101348.75;5080766;28;20052;-64
2022/10/10 08:42:49;;;;;;;6.13;2.78;;;;;;;13.01;58.08;101362.47;5075060;28;20168;-64
2022/10/10 08:45:24;;;;;;;9.23;2.65;;;;;;;12.96;58.64;101356.94;5084183;28;20070;-63
2022/10/10 08:47:56;;;;;;;6.90;2.33;;;;;;;12.96;58.51;101363.16;5079970;28;20232;-64
2022/10/10 08:50:27;;;;;;;6.28;2.72;;;;;;;12.94;58.55;101367.94;5080636;28;20048;-63
2022/10/10 08:52:58;;;;;;;6.97;2.80;;;;;;;12.92;58.56;101364.66;5077783;28;20611;-63
2022/10/10 08:55:32;;;;;;;6.53;2.95;;;;;;;12.93;58.76;101360.09;5094177;28;20059;-64
2022/10/10 08:58:05;;;;;;;5.63;2.90;;;;;;;12.87;59.73;101350.19;5084527;28;20053;-63
2022/10/10 09:00:41;;;;;;;8.65;3.17;;;;;;;12.94;59.87;101359.03;5084421;28;20052;-64
2022/10/10 09:03:19;;;;;;;4.50;2.50;;;;;;;12.95;60.02;101361.50;5080560;28;20052;-67
2022/10/10 09:06:03;;;;;;;9.75;3.25;;;;;;;12.96;59.50;101357.75;5084903;28;20054;-64
2022/10/10 09:08:45;;;;;;;6.20;2.85;;;;;;;12.99;59.55;101361.88;5081639;28;20048;-64
2022/10/10 09:11:25;;;;;;;7.97;2.80;;;;;;;12.98;59.12;101363.75;5084521;28;20057;-65
2022/10/10 09:14:07;;;;;;;7.85;3.05;;;;;;;13.00;59.80;101363.53;5077693;28;20090;-65
2022/10/10 09:16:44;;;;;;;5.80;2.33;;;;;;;13.00;59.08;101360.84;5068176;28;20056;-65
2022/10/10 09:19:26;;;;;;;5.70;2.53;;;;;;;13.01;59.54;101360.59;5079852;28;20056;-65
2022/10/10 09:21:59;;;;;;;6.03;2.58;;;;;;;13.06;59.94;101364.50;5066746;28;20057;-65
2022/10/10 09:24:33;;;;;;;7.10;2.97;;;;;;;13.07;59.69;101368.84;5087755;28;20387;-65
2022/10/10 09:27:04;;;;;;;5.22;2.38;;;;;;;13.09;60.06;101369.44;5071421;28;20063;-65
2022/10/10 09:29:38;;;;;;;5.20;2.47;;;;;;;13.10;60.40;101371.09;5073819;28;20070;-65
2022/10/10 09:32:14;;;;;;;5.72;2.50;;;;;;;13.12;60.28;101383.31;5079730;28;20048;-64
2022/10/10 09:34:45;;;;;;;6.00;2.95;;;;;;;13.13;59.72;101387.66;5080236;28;20072;-64
2022/10/10 09:37:18;;;;;;;3.75;2.15;;;;;;;13.16;60.01;101389.09;5077820;28;20143;-66
2022/10/10 09:40:14;;;;;;;5.75;2.72;;;;;;;13.18;60.07;101387.03;5073807;28;20134;-64
2022/10/10 09:42:44;;;;;;;7.40;2.42;;;;;;;13.19;60.25;101386.78;5078137;28;20135;-66
2022/10/10 09:45:18;;;;;;;7.68;2.05;;;;;;;13.26;59.86;101401.03;5074747;28;20049;-63
2022/10/10 09:47:52;;;;;;;4.50;2.47;;;;;;;13.28;60.27;101398.09;5076601;28;20060;-66
2022/10/10 09:50:19;;;;;;;4.38;2.72;;;;;;;13.22;60.43;101391.75;5078731;28;20059;-68
2022/10/10 09:52:48;;;;;;;4.95;2.55;;;;;;;13.33;60.41;101403.66;5080067;28;20052;-66
2022/10/10 09:55:30;;;;;;;5.68;2.33;;;;;;;13.36;61.45;101405.91;5071814;28;20057;-68
2022/10/10 09:58:10;;;;;;;10.27;3.60;;;;;;;13.39;60.76;101413.53;5078325;28;20147;-67
2022/10/10 10:00:38;;;;;;;5.68;2.65;;;;;;;13.42;61.12;101420.38;5079898;28;20059;-67
2022/10/10 10:03:12;;;;;;;6.70;2.83;;;;;;;13.44;61.44;101411.00;5080858;28;20142;-67
2022/10/10 10:05:43;;;;;;;7.43;2.58;;;;;;;13.44;61.58;101416.41;5070724;28;20056;-67
2022/10/10 10:08:26;;;;;;;4.28;2.22;;;;;;;13.44;61.45;101407.47;5081095;28;20044;-67
2022/10/10 10:10:56;;;;;;;3.00;2.38;;;;;;;13.50;61.29;101410.09;5079084;28;20044;-67
2022/10/10 10:13:29;;;;;;;7.93;2.90;;;;;;;13.50;61.05;101403.84;5078776;28;20063;-67
2022/10/10 10:16:04;;;;;;;6.78;2.30;;;;;;;13.53;60.78;101406.09;5072850;28;20116;-67
2022/10/10 10:18:39;;;;;;;6.70;2.38;;;;;;;13.56;60.75;101411.06;5080186;28;20136;-68
2022/10/10 10:21:18;;;;;;;6.45;2.80;;;;;;;13.58;60.96;101408.94;5080914;28;20115;-70
2022/10/10 10:23:52;;;;;;;4.90;2.20;;;;;;;13.59;60.80;101419.53;5072001;28;20048;-67
2022/10/10 10:26:23;;;;;;;3.72;1.77;;;;;;;13.62;61.16;101407.44;5083464;28;20048;-67
2022/10/10 10:28:52;;;;;;;5.60;2.75;;;;;;;13.63;61.00;101412.63;5090000;28;20393;-67
2022/10/10 10:31:30;;;;;;;5.43;2.60;;;;;;;13.57;61.43;101396.50;5070475;28;20075;-69
2022/10/10 10:34:10;;;;;;;7.07;2.00;;;;;;;13.67;61.44;101415.69;5082114;28;20059;-66
2022/10/10 10:36:45;;;;;;;7.88;2.55;;;;;;;13.69;61.42;101416.28;5070984;28;20539;-67
2022/10/10 10:39:28;;;;;;;7.93;2.30;;;;;;;13.71;61.09;101414.16;5081909;28;20054;-67
2022/10/10 10:42:02;;;;;;;4.15;2.03;;;;;;;13.75;61.20;101417.25;5084011;28;20044;-67
2022/10/10 10:44:40;;;;;;;8.45;2.13;;;;;;;13.76;61.31;101418.88;5082619;28;20045;-68
2022/10/10 10:47:23;;;;;;;6.05;2.33;;;;;;;13.77;60.83;101428.66;5064751;28;20053;-67
2022/10/10 10:50:04;;;;;;;8.20;2.88;;;;;;;13.80;61.34;101431.72;5083116;28;20414;-68
2022/10/10 10:52:43;;;;;;;2.97;1.67;;;;;;;13.75;60.92;101417.25;5082339;28;20064;-68
2022/10/10 10:55:35;;;;;;;9.13;2.67;;;;;;;13.85;61.23;101441.84;5082165;28;20048;-68
2022/10/10 10:58:37;;;;;;;4.70;1.73;;;;;;;13.88;60.92;101438.66;5063582;28;20065;-67
2022/10/10 11:01:29;;;;;;;5.57;2.35;;;;;;;13.91;61.38;101439.00;5081129;28;20055;-65
2022/10/10 11:04:33;;;;;;;7.18;2.17;;;;;;;13.90;61.22;101437.34;5084534;28;20059;-68
2022/10/10 11:07:24;;;;;;;4.45;2.22;;;;;;;13.94;61.04;101437.72;5076095;28;20048;-68
2022/10/10 11:10:00;;;;;;;5.00;1.90;;;;;;;13.98;61.86;101436.22;5070233;28;20076;-67
2022/10/10 11:12:44;;;;;;;8.30;2.67;;;;;;;13.91;61.20;101430.06;5078301;28;20163;-68
2022/10/10 11:15:18;;;;;;;2.92;1.75;;;;;;;14.00;61.51;101450.31;5077546;28;20126;-69
2022/10/10 11:17:55;;;;;;;4.80;2.20;;;;;;;14.00;61.39;101453.84;5085924;28;20448;-69
2022/10/10 11:20:26;;;;;;;;;;;;;;;14.03;61.33;101460.66;5072878;28;20053;-69
2022/10/10 11:23:03;;;;;;;3.90;2.20;;;;;;;14.03;61.51;101452.56;5074929;28;19987;-69
2022/10/10 11:25:43;;;;;;;3.50;1.98;;;;;;;14.04;61.25;101448.81;5086373;28;20056;-69
2022/10/10 11:28:15;;;;;;;3.58;1.92;;;;;;;14.06;61.14;101452.09;5078621;28;20053;-70
2022/10/10 11:30:48;;;;;;;6.30;2.42;;;;;;;14.07;61.61;101453.75;5067680;28;20057;-70
2022/10/10 11:33:22;;;;;;;11.20;3.03;;;;;;;14.11;62.40;101454.94;5080738;28;20044;-69
2022/10/10 11:35:55;;;;;;;5.43;2.33;;;;;;;14.11;62.64;101459.53;5080027;28;20047;-69
2022/10/10 11:38:31;;;;;;;8.63;2.40;;;;;;;14.15;62.44;101460.72;5066059;28;20049;-67
2022/10/10 11:41:03;;;;;;;9.10;2.65;;;;;;;14.16;62.63;101457.78;5076932;28;20144;-68
2022/10/10 11:43:40;;;;;;;7.07;2.65;;;;;;;14.18;62.69;101457.53;5082755;28;20052;-66